Pagina principală
METAR-TAF:

METAR-TAF

Aeroporturi :

Malakula, Vanuatu

Latitudine: 16-27-26S, longitudine: 167-49-42E, elevație: 2 m

Observații meteo curente

Raportul a fost făcut în urmă cu 4 ore și 24 de minute, la 20:00 UTC
Vânt 5 kt de la Sud-est
Temperatură
Presiune 1010 hPa

METAR: NVSL 242000Z AUTO 140005KT //// // NCD24/// Q1010

Ora: 11:24 (00:24 UTC)

Prognoză

Raportul a fost făcut în urmă cu 1 oră și 33 de minute, la 22:51 UTC
Prognoză valabilă de la 25 ora 00 UTC la 25 ora 24 UTC
Vânt 11 kt de la Sud-est
Vizibilitate de 10 km sau mai mult
Nori împrăștiați la o înălțime de 3000 picior

TAF: NVSL 242251Z 2500/2524 13011KT 9999 SCT030

Observații și prognoze meteo pentru peste 4.000 de aeroporturi (rapoarte METAR și TAF).

Stațiile disponibile sunt reprezentate pe hartă prin puncte galbene și roșii.

Țineți indicatorul mouse-ului pe punctul dorit pentru a vedea denumirea stației.

Apoi, faceți clic pentru a vedea observațiile și prognozele meteorologice.

Pentru a schimba harta: Pentru mărire, faceți clic pe butoanele verzi cu cruce neagră; pentru micșorare, pe butonul verde cu o liniuță; pentru hărți învecinate, pe săgețile verzi.


METAR-TAF: